Time;durP1;ratioP1;P1;durP2;ratioP2;P2;SDS_P1;SDS_P2;PMS_P1;PMS_P2;Temp;Humidity;BMP_temperature;BMP_pressure;BME280_temperature;BME280_humidity;BME280_pressure;Samples;Min_cycle;Max_cycle;Signal;HPM_P1;HPM_P2
2022/11/24 00:01:15;;;;;;;81.90;14.20;;;7.40;99.90;;;;;;5036429;28;20292;-86
2022/11/24 00:03:50;;;;;;;79.22;15.63;;;7.40;99.90;;;;;;5037379;28;20260;-87
2022/11/24 00:06:16;;;;;;;75.30;14.48;;;7.40;99.90;;;;;;5039572;28;20164;-87
2022/11/24 00:08:44;;;;;;;73.03;13.20;;;7.40;99.90;;;;;;5038266;28;20165;-87
2022/11/24 00:11:14;;;;;;;76.72;14.07;;;7.50;99.90;;;;;;5038783;28;20242;-86
2022/11/24 00:13:43;;;;;;;77.97;12.35;;;7.50;99.90;;;;;;5038507;28;20256;-88
2022/11/24 00:16:18;;;;;;;69.72;12.10;;;7.50;99.90;;;;;;5038945;28;20161;-86
2022/11/24 00:18:46;;;;;;;79.57;15.48;;;7.50;99.90;;;;;;5038730;28;20168;-86
2022/11/24 00:21:13;;;;;;;83.63;14.27;;;7.50;99.90;;;;;;5038805;28;20670;-87
2022/11/24 00:23:41;;;;;;;75.93;12.60;;;7.60;99.90;;;;;;5038266;28;20261;-86
2022/11/24 00:26:10;;;;;;;85.50;14.40;;;7.50;99.90;;;;;;5038798;28;20589;-87
2022/11/24 00:28:36;;;;;;;81.22;12.10;;;7.50;99.90;;;;;;5039119;28;20173;-87
2022/11/24 00:31:03;;;;;;;87.43;11.65;;;7.40;99.90;;;;;;5037448;28;20188;-87
2022/11/24 00:33:32;;;;;;;72.93;10.50;;;7.50;99.90;;;;;;5037205;28;20173;-87
2022/11/24 00:35:59;;;;;;;82.35;10.70;;;7.40;99.90;;;;;;5039484;28;20169;-87
2022/11/24 00:38:25;;;;;;;81.80;11.30;;;7.40;99.90;;;;;;5042920;28;20192;-87
2022/11/24 00:40:57;;;;;;;81.47;12.70;;;7.40;99.90;;;;;;5042819;28;20196;-87
2022/11/24 00:43:22;;;;;;;72.03;10.73;;;7.30;99.90;;;;;;5042608;28;20384;-87
2022/11/24 00:45:48;;;;;;;77.67;11.07;;;7.20;99.90;;;;;;5042521;28;20176;-87
2022/11/24 00:48:16;;;;;;;75.90;10.20;;;7.20;99.90;;;;;;5040841;28;20181;-88
2022/11/24 00:50:42;;;;;;;71.43;9.57;;;7.20;99.90;;;;;;5041395;28;20201;-87
2022/11/24 00:53:08;;;;;;;77.57;10.43;;;7.20;99.90;;;;;;5041391;28;20251;-86
2022/11/24 00:55:34;;;;;;;81.80;9.10;;;7.20;99.90;;;;;;5042708;28;20169;-86
2022/11/24 00:57:59;;;;;;;86.33;10.27;;;7.10;99.90;;;;;;5038990;28;20265;-86
2022/11/24 01:00:25;;;;;;;70.20;9.33;;;7.10;99.90;;;;;;5038554;28;20451;-86
2022/11/24 01:02:51;;;;;;;74.83;10.47;;;7.20;99.90;;;;;;5039136;28;20408;-87
2022/11/24 01:05:17;;;;;;;74.28;9.25;;;7.10;99.90;;;;;;5040715;28;20450;-86
2022/11/24 01:07:43;;;;;;;78.80;10.47;;;7.10;99.90;;;;;;5039622;28;20173;-86
2022/11/24 01:10:09;;;;;;;77.00;13.37;;;7.20;99.90;;;;;;5039696;28;20428;-87
2022/11/24 01:12:35;;;;;;;75.40;11.80;;;7.20;99.90;;;;;;5042172;28;20196;-88
2022/11/24 01:15:00;;;;;;;78.03;12.77;;;7.20;99.90;;;;;;5042267;28;20407;-86
2022/11/24 01:17:26;;;;;;;83.27;15.03;;;7.20;99.90;;;;;;5044289;28;20168;-88
2022/11/24 01:19:52;;;;;;;76.30;11.30;;;7.20;99.90;;;;;;5046360;28;20192;-87
2022/11/24 01:22:18;;;;;;;76.27;13.47;;;7.20;99.90;;;;;;5044908;28;20709;-86
2022/11/24 01:24:44;;;;;;;75.17;12.83;;;7.20;99.90;;;;;;5042278;28;20177;-86
2022/11/24 01:27:10;;;;;;;82.43;13.48;;;7.20;99.90;;;;;;5043204;28;20201;-87
2022/11/24 01:29:36;;;;;;;79.83;14.20;;;7.30;99.90;;;;;;5045224;28;20192;-86
2022/11/24 01:32:01;;;;;;;78.10;13.60;;;7.30;99.90;;;;;;5044344;28;20546;-86
2022/11/24 01:34:27;;;;;;;76.23;11.80;;;7.40;99.90;;;;;;5044286;28;20165;-86
2022/11/24 01:36:53;;;;;;;71.83;10.73;;;7.50;99.90;;;;;;5042667;28;20204;-87
2022/11/24 01:39:18;;;;;;;74.13;12.07;;;7.50;99.90;;;;;;5043514;28;20169;-87
2022/11/24 01:41:44;;;;;;;70.37;10.80;;;7.50;99.90;;;;;;5043848;28;20295;-88
2022/11/24 01:44:25;;;;;;;79.10;12.33;;;7.60;99.90;;;;;;5044552;28;20643;-87
2022/11/24 01:46:58;;;;;;;74.97;11.25;;;7.60;99.90;;;;;;5042450;28;20181;-86
2022/11/24 01:49:38;;;;;;;72.35;12.70;;;7.60;99.90;;;;;;5044719;28;20215;-87
2022/11/24 01:52:10;;;;;;;74.57;12.73;;;7.60;99.90;;;;;;5044394;28;20157;-87
2022/11/24 01:54:41;;;;;;;79.28;13.70;;;7.60;99.90;;;;;;5041650;28;20150;-88
2022/11/24 01:57:16;;;;;;;75.65;13.48;;;7.60;99.90;;;;;;5041355;28;20146;-86
2022/11/24 01:59:45;;;;;;;79.10;12.95;;;7.50;99.90;;;;;;5041906;28;20520;-88
2022/11/24 02:02:11;;;;;;;76.63;13.70;;;7.60;99.90;;;;;;5041231;28;20168;-87
2022/11/24 02:04:38;;;;;;;75.43;12.50;;;7.60;99.90;;;;;;5040500;28;20168;-88
2022/11/24 02:07:05;;;;;;;78.47;13.45;;;7.60;99.90;;;;;;5041652;28;20161;-87
2022/11/24 02:09:50;;;;;;;73.25;13.55;;;7.60;99.90;;;;;;5040755;28;20189;-87
2022/11/24 02:12:16;;;;;;;76.93;12.60;;;7.50;99.90;;;;;;5041152;28;20519;-86
2022/11/24 02:14:45;;;;;;;78.37;12.37;;;7.50;99.90;;;;;;5040823;28;20169;-88
2022/11/24 02:17:10;;;;;;;75.57;11.48;;;7.50;99.90;;;;;;5040707;28;20502;-87
2022/11/24 02:19:39;;;;;;;77.63;11.87;;;7.50;99.90;;;;;;5040166;28;20224;-87
2022/11/24 02:22:15;;;;;;;93.25;14.35;;;7.50;99.90;;;;;;5040643;28;20204;-87
2022/11/24 02:24:44;;;;;;;70.00;12.70;;;7.50;99.90;;;;;;5040527;28;20594;-87
2022/11/24 02:27:10;;;;;;;75.95;13.15;;;7.50;99.90;;;;;;5040086;28;20200;-86
2022/11/24 02:29:36;;;;;;;79.68;12.48;;;7.50;99.90;;;;;;5040340;28;20185;-87
2022/11/24 02:32:05;;;;;;;80.97;14.02;;;7.50;99.90;;;;;;5040750;28;20162;-87
2022/11/24 02:34:31;;;;;;;83.88;13.88;;;7.50;99.90;;;;;;5040433;28;20165;-87
2022/11/24 02:36:56;;;;;;;80.53;11.60;;;7.60;99.90;;;;;;5037867;28;20168;-87
2022/11/24 02:39:23;;;;;;;80.90;15.27;;;7.50;99.90;;;;;;5038781;28;20173;-87
2022/11/24 02:41:57;;;;;;;80.05;14.30;;;7.50;99.90;;;;;;5038654;28;20201;-87
2022/11/24 02:44:26;;;;;;;76.85;11.40;;;7.50;99.90;;;;;;5039971;28;20628;-87
2022/11/24 02:47:07;;;;;;;76.82;12.32;;;7.40;99.90;;;;;;5039320;28;20192;-87
2022/11/24 02:49:33;;;;;;;73.50;10.27;;;7.40;99.90;;;;;;5040287;28;20177;-87
2022/11/24 02:51:58;;;;;;;87.13;12.80;;;7.40;99.90;;;;;;5038568;28;20252;-87
2022/11/24 02:54:24;;;;;;;77.87;11.20;;;7.30;99.90;;;;;;5038638;28;20408;-87
2022/11/24 02:56:51;;;;;;;73.17;11.17;;;7.40;99.90;;;;;;5039364;28;20407;-87
2022/11/24 02:59:16;;;;;;;80.15;11.65;;;7.30;99.90;;;;;;5038990;28;20396;-87
2022/11/24 03:01:42;;;;;;;74.43;11.07;;;7.20;99.90;;;;;;5040533;28;20242;-87
2022/11/24 03:04:08;;;;;;;73.53;11.20;;;7.20;99.90;;;;;;5039706;28;20638;-88
2022/11/24 03:06:34;;;;;;;81.43;12.00;;;7.20;99.90;;;;;;5038666;28;20174;-87
2022/11/24 03:08:59;;;;;;;76.67;10.53;;;7.20;99.90;;;;;;5039280;28;20172;-87
2022/11/24 03:11:25;;;;;;;86.17;11.40;;;7.10;99.90;;;;;;5039945;28;20196;-87
2022/11/24 03:13:51;;;;;;;78.20;10.30;;;7.10;99.90;;;;;;5039862;28;20172;-87
2022/11/24 03:16:16;;;;;;;80.57;10.97;;;7.10;99.90;;;;;;5039799;28;20276;-88
2022/11/24 03:18:42;;;;;;;76.80;12.63;;;7.10;99.90;;;;;;5039413;28;20223;-86
2022/11/24 03:21:08;;;;;;;75.13;11.90;;;7.20;99.90;;;;;;5037457;28;20201;-87
2022/11/24 03:23:36;;;;;;;76.43;10.00;;;7.10;99.90;;;;;;5039311;28;20240;-87
2022/11/24 03:26:10;;;;;;;77.28;9.65;;;7.10;99.90;;;;;;5037230;28;20165;-87
2022/11/24 03:28:36;;;;;;;73.03;11.30;;;7.10;99.90;;;;;;5037673;28;20169;-88
2022/11/24 03:31:04;;;;;;;72.57;12.77;;;7.10;99.90;;;;;;5038353;28;20193;-87
2022/11/24 03:33:30;;;;;;;77.40;11.02;;;7.10;99.90;;;;;;5039134;28;20188;-87
2022/11/24 03:35:56;;;;;;;84.60;11.43;;;7.20;99.90;;;;;;5038956;28;20566;-87
2022/11/24 03:38:22;;;;;;;79.77;11.50;;;7.20;99.90;;;;;;5038317;28;20250;-87
2022/11/24 03:40:48;;;;;;;74.40;13.20;;;7.20;99.90;;;;;;5037752;28;20246;-87
2022/11/24 03:43:13;;;;;;;86.53;14.53;;;7.20;99.90;;;;;;5038715;28;20161;-87
2022/11/24 03:45:39;;;;;;;76.43;14.17;;;7.20;99.90;;;;;;5038185;28;20901;-87
2022/11/24 03:48:06;;;;;;;80.67;14.40;;;7.20;99.90;;;;;;5038830;28;20181;-87
2022/11/24 03:50:35;;;;;;;77.72;14.60;;;7.20;99.90;;;;;;5037921;28;20192;-87
2022/11/24 03:53:03;;;;;;;74.47;12.85;;;7.20;99.90;;;;;;5037152;28;20567;-87
2022/11/24 03:55:29;;;;;;;78.53;12.18;;;7.20;99.90;;;;;;5038493;28;20512;-87
2022/11/24 03:57:57;;;;;;;73.97;12.47;;;7.20;99.90;;;;;;5039288;28;20236;-87
2022/11/24 04:00:25;;;;;;;75.03;13.18;;;7.20;99.90;;;;;;5038089;28;20193;-87
2022/11/24 04:03:05;;;;;;;77.75;11.10;;;7.20;99.90;;;;;;5037890;28;20661;-87
2022/11/24 04:08:28;;;;;;;75.68;11.23;;;7.20;99.90;;;;;;5026592;28;20181;-87
2022/11/24 04:10:58;;;;;;;75.55;11.85;;;7.20;99.90;;;;;;5037686;28;20192;-87
2022/11/24 04:13:42;;;;;;;77.57;14.25;;;7.30;99.90;;;;;;5036371;28;20173;-87
2022/11/24 04:16:27;;;;;;;72.80;11.38;;;7.30;99.90;;;;;;5035060;28;20172;-87
2022/11/24 04:18:59;;;;;;;76.00;12.30;;;7.30;99.90;;;;;;5035903;28;20165;-88
2022/11/24 04:24:26;;;;;;;77.07;11.93;;;7.30;99.90;;;;;;5026761;28;20206;-87
2022/11/24 04:27:04;;;;;;;82.85;13.52;;;7.30;99.90;;;;;;5036872;28;20669;-87
2022/11/24 04:29:32;;;;;;;78.65;11.23;;;7.30;99.90;;;;;;5036317;28;20195;-88
2022/11/24 04:32:53;;;;;;;76.15;11.50;;;7.40;99.90;;;;;;5036014;28;20180;-87
2022/11/24 04:35:02;;;;;;;74.45;10.75;;;7.40;99.90;;;;;;5030552;28;20185;-87
2022/11/24 04:37:35;;;;;;;87.10;11.90;;;7.40;99.90;;;;;;5036298;28;20207;-87
2022/11/24 04:40:16;;;;;;;71.93;10.00;;;7.40;99.90;;;;;;5037229;28;20222;-87
2022/11/24 04:42:57;;;;;;;74.63;10.90;;;7.50;99.90;;;;;;5036707;28;20197;-87
2022/11/24 04:45:29;;;;;;;80.70;10.77;;;7.50;99.90;;;;;;5036839;28;20252;-87
2022/11/24 04:48:02;;;;;;;73.97;10.73;;;7.50;99.90;;;;;;5036650;28;20690;-87
2022/11/24 04:50:31;;;;;;;83.10;11.52;;;7.60;99.90;;;;;;5036090;28;20212;-87
2022/11/24 04:52:57;;;;;;;82.40;10.07;;;7.70;99.90;;;;;;5035186;28;20231;-87
2022/11/24 04:55:23;;;;;;;79.07;10.00;;;7.70;99.90;;;;;;5034752;28;20165;-87
2022/11/24 04:57:57;;;;;;;79.30;9.00;;;7.80;99.90;;;;;;5036263;28;20164;-87
2022/11/24 05:00:23;;;;;;;80.03;10.35;;;7.80;99.90;;;;;;5035402;28;20450;-86
2022/11/24 05:02:53;;;;;;;97.97;10.07;;;7.90;99.90;;;;;;5035745;28;20241;-87
2022/11/24 05:05:24;;;;;;;79.22;9.68;;;7.90;99.90;;;;;;5035212;28;20400;-87
2022/11/24 05:07:50;;;;;;;82.90;9.80;;;8.00;99.90;;;;;;5035648;28;20166;-88
2022/11/24 05:10:36;;;;;;;76.97;11.32;;;8.00;99.90;;;;;;5034184;28;20185;-87
2022/11/24 05:13:15;;;;;;;85.72;10.90;;;8.00;99.90;;;;;;5034666;28;20196;-87
2022/11/24 05:15:58;;;;;;;80.18;9.93;;;8.00;99.90;;;;;;5034310;28;20716;-87
2022/11/24 05:18:29;;;;;;;85.53;12.40;;;8.00;99.90;;;;;;5035073;28;20181;-87
2022/11/24 05:21:03;;;;;;;80.32;12.85;;;8.10;99.90;;;;;;5034861;28;20218;-86
2022/11/24 05:23:37;;;;;;;90.07;14.43;;;8.10;99.90;;;;;;5038575;28;20170;-87
2022/11/24 05:26:07;;;;;;;94.43;13.57;;;8.00;99.90;;;;;;5037327;28;20164;-87
2022/11/24 05:28:39;;;;;;;83.65;12.10;;;8.00;99.90;;;;;;5038617;28;20157;-87
2022/11/24 05:31:12;;;;;;;80.32;13.77;;;8.00;99.90;;;;;;5037126;28;20219;-87
2022/11/24 05:33:47;;;;;;;77.43;14.25;;;8.00;99.90;;;;;;5038516;28;20169;-87
2022/11/24 05:37:02;;;;;;;78.18;10.77;;;8.10;99.90;;;;;;5037868;28;20173;-87
2022/11/24 05:39:25;;;;;;;77.93;12.05;;;8.10;99.90;;;;;;5035227;28;20179;-87
2022/11/24 05:41:51;;;;;;;82.03;13.95;;;8.10;99.90;;;;;;5021137;28;20220;-87
2022/11/24 05:44:19;;;;;;;78.53;14.32;;;8.10;99.90;;;;;;5034730;28;20177;-87
2022/11/24 05:46:54;;;;;;;79.68;12.88;;;8.10;99.90;;;;;;5039246;28;20565;-87
2022/11/24 05:49:20;;;;;;;83.07;15.75;;;8.10;99.90;;;;;;5040068;28;20229;-87
2022/11/24 05:51:49;;;;;;;82.38;12.48;;;8.20;99.90;;;;;;5039589;28;20212;-87
2022/11/24 05:54:18;;;;;;;87.68;13.82;;;8.20;99.90;;;;;;5036117;28;20173;-87
2022/11/24 05:56:47;;;;;;;79.03;10.35;;;8.20;99.90;;;;;;5034813;28;20235;-87
2022/11/24 05:59:44;;;;;;;86.13;10.52;;;8.30;99.90;;;;;;5035813;28;20533;-87
2022/11/24 06:02:09;;;;;;;94.35;11.68;;;8.40;99.90;;;;;;5035354;28;20177;-87
2022/11/24 06:04:36;;;;;;;81.30;10.70;;;8.40;99.90;;;;;;5038059;28;20169;-86
2022/11/24 06:07:05;;;;;;;82.07;10.25;;;8.30;99.90;;;;;;5036625;28;20161;-87
2022/11/24 06:09:31;;;;;;;82.63;8.98;;;8.30;99.90;;;;;;5036268;28;20245;-86
2022/11/24 06:11:57;;;;;;;81.40;9.40;;;8.30;99.90;;;;;;5036026;28;20200;-86
2022/11/24 06:14:23;;;;;;;76.93;9.13;;;8.20;99.90;;;;;;5037872;28;20548;-86
2022/11/24 06:16:49;;;;;;;73.00;8.40;;;8.30;99.90;;;;;;5037616;28;20551;-86
2022/11/24 06:19:14;;;;;;;79.37;8.77;;;8.30;99.90;;;;;;5037758;28;20432;-86
2022/11/24 06:21:40;;;;;;;66.70;8.30;;;8.30;99.90;;;;;;5035869;28;20884;-86
2022/11/24 06:24:06;;;;;;;71.30;8.07;;;8.20;99.90;;;;;;5037495;28;20157;-86
2022/11/24 06:26:34;;;;;;;72.82;9.02;;;8.20;99.90;;;;;;5038808;28;20515;-87
2022/11/24 06:29:00;;;;;;;69.90;7.90;;;8.20;99.90;;;;;;5039367;28;20165;-86
2022/11/24 06:31:26;;;;;;;78.80;9.57;;;8.20;99.90;;;;;;5037645;28;20193;-86
2022/11/24 06:33:52;;;;;;;71.03;8.17;;;8.30;99.90;;;;;;5038413;28;20531;-86
2022/11/24 06:36:20;;;;;;;71.53;8.27;;;8.20;99.90;;;;;;5038006;28;20183;-85
2022/11/24 06:38:46;;;;;;;71.53;8.23;;;8.30;99.90;;;;;;5039445;28;20363;-87
2022/11/24 06:41:14;;;;;;;67.83;8.23;;;8.20;99.90;;;;;;5039202;28;20296;-86
2022/11/24 06:43:40;;;;;;;73.35;7.85;;;8.10;99.90;;;;;;5039291;28;20412;-87
2022/11/24 06:46:06;;;;;;;71.25;8.35;;;8.10;99.90;;;;;;5039258;28;20173;-87
2022/11/24 06:48:32;;;;;;;71.15;9.27;;;8.20;99.90;;;;;;5040208;28;20153;-86
2022/11/24 06:51:02;;;;;;;68.37;8.00;;;8.10;99.90;;;;;;5038971;28;20185;-87
2022/11/24 06:53:36;;;;;;;65.97;8.05;;;8.20;99.90;;;;;;5039325;28;20439;-87
2022/11/24 06:56:04;;;;;;;78.85;8.90;;;8.20;99.90;;;;;;5038189;28;20244;-86
2022/11/24 06:58:30;;;;;;;69.10;9.65;;;8.20;99.90;;;;;;5040182;28;20165;-86
2022/11/24 07:00:56;;;;;;;75.53;10.60;;;8.20;99.90;;;;;;5039917;28;20200;-86
2022/11/24 07:03:21;;;;;;;67.57;9.20;;;8.20;99.90;;;;;;5039550;28;20160;-86
2022/11/24 07:05:47;;;;;;;74.33;9.50;;;8.10;99.90;;;;;;5039546;28;20647;-86
2022/11/24 07:08:13;;;;;;;70.73;8.73;;;8.10;99.90;;;;;;5039175;28;20470;-86
2022/11/24 07:10:39;;;;;;;73.05;12.07;;;8.00;99.90;;;;;;5038361;28;20431;-87
2022/11/24 07:13:09;;;;;;;69.90;11.27;;;8.00;99.90;;;;;;5037453;28;20177;-87
2022/11/24 07:15:35;;;;;;;71.43;10.02;;;8.00;99.90;;;;;;5037439;28;20465;-86
2022/11/24 07:18:01;;;;;;;71.18;11.13;;;7.90;99.90;;;;;;5039366;28;20200;-86
2022/11/24 07:20:26;;;;;;;73.73;10.37;;;7.80;99.90;;;;;;5038824;28;20189;-85
2022/11/24 07:22:56;;;;;;;71.17;10.33;;;7.80;99.90;;;;;;5039255;28;20158;-85
2022/11/24 07:25:23;;;;;;;68.57;10.70;;;7.80;99.90;;;;;;5040099;28;20180;-86
2022/11/24 07:27:49;;;;;;;70.20;8.95;;;7.70;99.90;;;;;;5038831;28;20169;-87
2022/11/24 07:30:15;;;;;;;68.60;9.67;;;7.70;99.90;;;;;;5039431;28;20207;-86
2022/11/24 07:32:40;;;;;;;70.00;8.55;;;7.70;99.90;;;;;;5040756;28;20631;-87
2022/11/24 07:35:06;;;;;;;68.47;11.00;;;7.70;99.90;;;;;;5039667;28;20177;-86
2022/11/24 07:37:32;;;;;;;71.00;10.03;;;7.70;99.90;;;;;;5038861;28;20204;-86
2022/11/24 07:39:58;;;;;;;68.37;10.53;;;7.70;99.90;;;;;;5039881;28;20201;-86
2022/11/24 07:42:23;;;;;;;69.10;11.30;;;7.60;99.90;;;;;;5038667;28;20169;-87
2022/11/24 07:44:49;;;;;;;72.73;10.67;;;7.60;99.90;;;;;;5039124;28;20231;-86
2022/11/24 07:47:14;;;;;;;70.67;12.10;;;7.70;99.90;;;;;;5039101;28;20181;-86
2022/11/24 07:49:40;;;;;;;69.80;10.23;;;7.70;99.90;;;;;;5039112;28;20185;-86
2022/11/24 07:52:07;;;;;;;67.80;9.90;;;7.70;99.90;;;;;;5039344;28;20169;-87
2022/11/24 07:54:32;;;;;;;72.10;11.45;;;7.70;99.90;;;;;;5038805;28;20248;-85
2022/11/24 07:56:58;;;;;;;68.07;8.97;;;7.70;99.90;;;;;;5037529;28;20196;-87
2022/11/24 07:59:24;;;;;;;74.30;11.80;;;7.80;99.90;;;;;;5039599;28;20522;-87
2022/11/24 08:01:49;;;;;;;71.30;10.03;;;7.80;99.90;;;;;;5038728;28;20197;-86
2022/11/24 08:04:15;;;;;;;70.20;11.97;;;7.90;99.90;;;;;;5038093;28;20177;-86
2022/11/24 08:06:41;;;;;;;69.20;10.63;;;7.90;99.90;;;;;;5037615;28;20173;-87
2022/11/24 08:09:06;;;;;;;66.97;11.30;;;8.00;99.90;;;;;;5038514;28;20165;-86
2022/11/24 08:11:33;;;;;;;75.43;10.53;;;8.10;99.90;;;;;;5038863;28;20163;-87
2022/11/24 08:13:59;;;;;;;69.97;10.07;;;8.10;99.90;;;;;;5040197;28;20158;-87
2022/11/24 08:16:24;;;;;;;68.53;8.87;;;8.20;99.90;;;;;;5041933;28;20165;-87
2022/11/24 08:18:53;;;;;;;80.93;9.40;;;8.20;99.90;;;;;;5041434;28;20653;-86
2022/11/24 08:21:21;;;;;;;66.57;10.13;;;8.30;99.90;;;;;;5040895;28;20193;-87
2022/11/24 08:23:48;;;;;;;68.22;11.23;;;8.30;99.90;;;;;;5040998;28;20620;-87
2022/11/24 08:26:16;;;;;;;75.70;9.43;;;8.30;99.90;;;;;;5039085;28;20172;-87
2022/11/24 08:28:43;;;;;;;70.65;9.43;;;8.40;99.90;;;;;;5040068;28;20237;-87
2022/11/24 08:31:12;;;;;;;72.50;11.40;;;8.50;99.90;;;;;;5040825;28;20189;-87
2022/11/24 08:33:38;;;;;;;71.43;9.88;;;8.50;99.90;;;;;;5039840;28;20169;-86
2022/11/24 08:36:06;;;;;;;71.32;9.40;;;8.60;99.90;;;;;;5040346;28;20708;-87
2022/11/24 08:38:32;;;;;;;74.78;13.57;;;8.70;99.90;;;;;;5040289;28;20639;-87
2022/11/24 08:41:00;;;;;;;69.78;9.95;;;8.70;99.90;;;;;;5040898;28;20220;-87
2022/11/24 08:43:26;;;;;;;73.90;9.10;;;8.80;99.90;;;;;;5038269;28;20257;-87
2022/11/24 08:45:51;;;;;;;74.63;10.57;;;8.80;99.90;;;;;;5039551;28;20200;-87
2022/11/24 08:48:17;;;;;;;70.77;10.87;;;8.80;99.90;;;;;;5039794;28;20192;-87
2022/11/24 08:50:43;;;;;;;70.00;11.47;;;8.90;99.90;;;;;;5039489;28;20188;-86
2022/11/24 08:53:09;;;;;;;71.80;8.13;;;8.90;99.90;;;;;;5040787;28;20171;-86
2022/11/24 08:55:34;;;;;;;68.97;6.73;;;9.00;99.90;;;;;;5039135;28;20173;-87
2022/11/24 08:58:00;;;;;;;70.03;7.40;;;9.10;99.90;;;;;;5043854;28;20180;-87
2022/11/24 09:00:25;;;;;;;77.40;7.50;;;9.10;99.90;;;;;;5041786;28;20547;-87
2022/11/24 09:02:53;;;;;;;71.37;5.83;;;9.10;99.90;;;;;;5043870;28;20244;-87
2022/11/24 09:05:19;;;;;;;73.43;7.68;;;9.10;99.90;;;;;;5044646;28;20248;-87
2022/11/24 09:07:47;;;;;;;74.17;8.60;;;9.20;99.90;;;;;;5045013;28;20587;-86
2022/11/24 09:10:13;;;;;;;67.85;7.88;;;9.20;99.90;;;;;;5043745;28;20189;-86
2022/11/24 09:12:39;;;;;;;72.57;7.97;;;9.30;99.90;;;;;;5044389;28;20239;-87
2022/11/24 09:15:05;;;;;;;69.17;6.63;;;9.40;99.90;;;;;;5043590;28;20173;-87
2022/11/24 09:17:31;;;;;;;67.18;6.65;;;9.60;99.90;;;;;;5044769;28;20165;-87
2022/11/24 09:19:57;;;;;;;72.13;6.17;;;9.60;99.90;;;;;;5042328;28;20189;-87
2022/11/24 09:22:22;;;;;;;69.07;5.23;;;9.70;99.90;;;;;;5044187;28;20408;-86
2022/11/24 09:24:48;;;;;;;69.53;7.40;;;9.80;99.90;;;;;;5043424;28;20168;-87
2022/11/24 09:27:17;;;;;;;72.60;5.80;;;9.80;99.90;;;;;;5045242;28;20357;-87
2022/11/24 09:29:42;;;;;;;68.32;5.75;;;9.80;99.90;;;;;;5042712;28;20197;-87
2022/11/24 09:32:08;;;;;;;67.50;5.33;;;9.90;99.90;;;;;;5043241;28;20166;-87
2022/11/24 09:34:34;;;;;;;77.17;6.07;;;9.90;99.90;;;;;;5044126;28;20161;-87
2022/11/24 09:37:00;;;;;;;67.77;5.80;;;9.90;99.90;;;;;;5044016;28;20165;-87
2022/11/24 09:39:25;;;;;;;69.72;5.68;;;9.90;99.90;;;;;;5042596;28;21522;-87
2022/11/24 09:42:15;;;;;;;69.20;5.40;;;9.90;99.90;;;;;;5043255;28;20252;-87
2022/11/24 09:44:44;;;;;;;74.68;6.22;;;10.00;99.90;;;;;;5042617;28;20493;-87
2022/11/24 09:47:45;;;;;;;71.38;6.05;;;10.00;99.90;;;;;;5041646;28;20527;-87
2022/11/24 09:50:22;;;;;;;72.75;5.80;;;10.00;99.90;;;;;;5044179;28;20550;-87
2022/11/24 09:53:09;;;;;;;66.75;5.72;;;10.10;99.90;;;;;;5043321;28;20232;-87
2022/11/24 09:55:55;;;;;;;70.00;6.15;;;10.20;99.90;;;;;;5042566;28;20153;-87
2022/11/24 09:58:30;;;;;;;69.50;6.20;;;10.20;99.90;;;;;;5041764;28;20161;-87
2022/11/24 10:00:57;;;;;;;69.65;6.38;;;10.20;99.90;;;;;;5040458;28;20197;-87
2022/11/24 10:03:30;;;;;;;77.70;6.93;;;10.30;99.90;;;;;;5039965;28;20571;-87
2022/11/24 10:05:57;;;;;;;78.57;6.22;;;10.40;99.90;;;;;;5040546;28;20154;-87
2022/11/24 10:08:34;;;;;;;71.65;5.82;;;10.40;99.90;;;;;;5042251;28;20230;-88
2022/11/24 10:11:04;;;;;;;69.50;5.20;;;10.40;99.90;;;;;;5042645;28;20184;-87
2022/11/24 10:13:32;;;;;;;72.45;7.35;;;10.50;99.90;;;;;;5040758;28;20169;-88
2022/11/24 10:16:07;;;;;;;77.28;6.00;;;10.50;99.90;;;;;;5041804;28;20709;-87
2022/11/24 10:18:48;;;;;;;74.45;8.68;;;10.50;99.90;;;;;;5043608;28;20164;-88
2022/11/24 10:21:13;;;;;;;74.95;7.25;;;10.60;99.90;;;;;;5042140;28;20197;-87
2022/11/24 10:24:07;;;;;;;66.00;6.83;;;10.60;99.90;;;;;;5040886;28;20161;-86
2022/11/24 10:26:39;;;;;;;70.93;8.25;;;10.70;99.90;;;;;;5042803;28;20244;-87
2022/11/24 10:29:26;;;;;;;72.70;6.68;;;10.60;99.90;;;;;;5039409;28;20181;-87
2022/11/24 10:31:55;;;;;;;71.75;6.40;;;10.60;99.90;;;;;;5041789;28;20157;-87
2022/11/24 10:34:21;;;;;;;75.05;5.60;;;10.70;99.90;;;;;;5041467;28;20256;-87
2022/11/24 10:37:24;;;;;;;74.13;4.73;;;10.80;99.90;;;;;;5040675;28;20243;-87
2022/11/24 10:40:16;;;;;;;74.78;5.07;;;10.80;99.90;;;;;;5039938;28;20458;-86
2022/11/24 10:42:42;;;;;;;75.97;5.85;;;10.90;99.90;;;;;;5040341;28;20170;-87
2022/11/24 10:45:12;;;;;;;74.15;8.45;;;10.90;99.90;;;;;;5040428;28;20165;-87
2022/11/24 10:47:38;;;;;;;74.32;6.47;;;11.00;99.90;;;;;;5039305;28;20646;-86
2022/11/24 10:50:19;;;;;;;76.60;8.55;;;11.00;99.90;;;;;;5039945;28;20193;-87
2022/11/24 10:52:49;;;;;;;67.03;4.82;;;11.00;99.90;;;;;;5038436;28;20165;-87
2022/11/24 10:55:16;;;;;;;69.65;5.15;;;11.00;99.90;;;;;;5038177;28;20172;-86
2022/11/24 10:57:43;;;;;;;73.82;6.93;;;11.10;99.90;;;;;;5039585;28;20173;-87
2022/11/24 11:00:18;;;;;;;75.90;5.22;;;11.10;99.90;;;;;;5040173;28;20279;-87
2022/11/24 11:02:47;;;;;;;71.90;5.82;;;11.10;99.90;;;;;;5039827;28;20195;-87
2022/11/24 11:05:31;;;;;;;73.15;5.28;;;11.10;99.90;;;;;;5038665;28;20172;-86
2022/11/24 11:08:12;;;;;;;70.55;5.32;;;11.10;99.90;;;;;;5039922;28;20219;-87
2022/11/24 11:10:39;;;;;;;69.07;5.60;;;11.20;99.90;;;;;;5039542;28;20189;-87
2022/11/24 11:13:29;;;;;;;76.78;4.70;;;11.20;99.90;;;;;;5040818;28;20662;-87
2022/11/24 11:15:57;;;;;;;73.22;5.50;;;11.20;99.90;;;;;;5040863;28;20161;-87
2022/11/24 11:18:31;;;;;;;78.80;5.82;;;11.20;99.90;;;;;;5039798;28;20166;-87
2022/11/24 11:21:00;;;;;;;75.45;5.72;;;11.10;99.90;;;;;;5039270;28;20220;-87
2022/11/24 11:23:44;;;;;;;74.60;6.25;;;11.20;99.90;;;;;;5040111;28;20176;-87
2022/11/24 11:26:32;;;;;;;73.68;4.50;;;11.20;99.90;;;;;;5040411;28;20157;-87
2022/11/24 11:29:13;;;;;;;69.75;4.80;;;11.20;99.90;;;;;;5038587;28;20157;-86
2022/11/24 11:31:40;;;;;;;76.80;4.72;;;11.20;99.90;;;;;;5021938;28;20197;-87
2022/11/24 11:34:08;;;;;;;76.57;4.45;;;11.30;99.90;;;;;;5040054;28;20635;-86
2022/11/24 11:36:39;;;;;;;67.93;5.15;;;11.30;99.90;;;;;;5037854;28;20196;-86
2022/11/24 11:39:05;;;;;;;72.00;4.30;;;11.30;99.90;;;;;;5039055;28;20216;-86
2022/11/24 11:41:35;;;;;;;72.93;5.00;;;11.30;99.90;;;;;;5039506;28;20197;-86
2022/11/24 11:44:12;;;;;;;72.57;5.13;;;11.30;99.90;;;;;;5039509;28;20404;-86
2022/11/24 11:46:38;;;;;;;73.70;5.57;;;11.30;99.90;;;;;;5219033;22;20175;-86
2022/11/24 11:49:04;;;;;;;73.03;4.57;;;11.40;99.90;;;;;;5039504;28;20163;-86
2022/11/24 11:51:41;;;;;;;75.97;5.07;;;11.30;99.90;;;;;;5039134;28;20193;-87
2022/11/24 11:54:54;;;;;;;73.43;5.40;;;11.30;99.90;;;;;;5039795;28;20183;-87
2022/11/24 11:57:35;;;;;;;68.90;3.97;;;11.30;99.90;;;;;;5038891;28;20177;-86
2022/11/24 12:00:14;;;;;;;72.80;4.68;;;11.30;99.90;;;;;;5039239;28;20191;-85
2022/11/24 12:03:20;;;;;;;71.15;5.40;;;11.30;99.90;;;;;;5038973;28;20500;-86
2022/11/24 12:05:56;;;;;;;70.93;4.38;;;11.30;99.90;;;;;;5039068;28;20153;-87
2022/11/24 12:08:41;;;;;;;73.22;4.03;;;11.20;99.90;;;;;;5037716;28;20157;-86
2022/11/24 12:11:16;;;;;;;73.88;4.10;;;11.20;99.90;;;;;;5039970;28;20188;-86
2022/11/24 12:14:13;;;;;;;77.85;4.90;;;11.30;99.90;;;;;;5038622;28;20169;-87
2022/11/24 12:17:05;;;;;;;72.22;4.32;;;11.30;99.90;;;;;;5039212;28;20149;-85
2022/11/24 12:19:52;;;;;;;70.00;4.82;;;11.30;99.90;;;;;;5039405;28;20213;-86
2022/11/24 12:22:23;;;;;;;78.47;5.75;;;11.30;99.90;;;;;;5037639;28;20166;-86
2022/11/24 12:24:54;;;;;;;67.53;4.30;;;11.30;99.90;;;;;;5039504;28;20149;-86
2022/11/24 12:27:36;;;;;;;68.60;4.13;;;11.40;99.90;;;;;;5039137;28;20527;-86
2022/11/24 12:30:17;;;;;;;69.38;4.80;;;11.40;99.90;;;;;;5039291;28;20188;-86
2022/11/24 12:33:31;;;;;;;70.03;4.68;;;11.40;99.90;;;;;;5041662;28;20192;-86
2022/11/24 12:36:12;;;;;;;70.55;4.00;;;11.40;99.90;;;;;;5021087;28;20180;-87
2022/11/24 12:38:44;;;;;;;71.13;4.40;;;11.40;99.90;;;;;;5042906;28;20240;-86
2022/11/24 12:41:43;;;;;;;74.53;4.60;;;11.40;99.90;;;;;;5042661;28;20189;-86
2022/11/24 12:44:49;;;;;;;73.40;4.80;;;11.40;99.90;;;;;;5042892;28;20157;-86
2022/11/24 12:47:35;;;;;;;88.38;5.65;;;11.40;99.90;;;;;;5043853;28;20650;-87
2022/11/24 12:50:37;;;;;;;68.90;4.57;;;11.40;99.90;;;;;;5044027;28;20193;-87
2022/11/24 12:53:09;;;;;;;72.55;4.70;;;11.40;99.90;;;;;;5031924;28;20177;-87
2022/11/24 12:55:35;;;;;;;67.45;4.28;;;11.30;99.90;;;;;;5043837;28;20142;-86
2022/11/24 12:58:29;;;;;;;71.88;4.20;;;11.40;99.90;;;;;;5044067;28;20165;-86
2022/11/24 13:01:29;;;;;;;70.78;4.93;;;11.40;99.90;;;;;;5043667;28;20246;-87
2022/11/24 13:04:13;;;;;;;71.97;4.80;;;11.40;99.90;;;;;;5043257;28;20219;-86